Abbey Dell, Indiana
Current Conditions -  °F | °C
As of 12:55 PM on Thursday 27 Nov 2014 (Local Time) from KDCY Reporting Station
Overcast Overcast  
Wind Chill: 19°   Ceiling: 1500
Heat Index: 29°   Visibility: 7mi
Dew Point: 25°   Wind: 13mph
Humidity: 86%   Direction: 290°WNW
Pressure: 30.41"   Gusts: NA
Location:  38.6165°N, 86.6265°W
Report Text: KDCY 271755Z AUTO 29011KT 7SM OVC015 M02/M04 A3041 RMK AO2 T10161037 11010 21027
Loading
Personal Weather Stations






























Interactive Weather Map New forecast layout! Learn more

10-Day Weather Forecast

Advertisements
Track Severe Weather on mobile